createdAt,value
2018-10-06T00:01:14.410Z,49.26
2018-10-06T00:03:44.209Z,49.36
2018-10-06T00:06:13.782Z,50.24
2018-10-06T00:08:49.325Z,49.93
2018-10-06T00:11:19.335Z,50.04
2018-10-06T00:13:49.197Z,49.64
2018-10-06T00:16:18.792Z,50.20
2018-10-06T00:18:48.318Z,50.46
2018-10-06T00:21:18.098Z,50.55
2018-10-06T00:24:41.033Z,50.19
2018-10-06T00:27:10.429Z,50.30
2018-10-06T00:29:40.320Z,50.41
2018-10-06T00:32:10.185Z,49.91
2018-10-06T00:34:39.698Z,50.25
2018-10-06T00:37:09.585Z,50.63
2018-10-06T00:51:26.676Z,50.33
2018-10-06T00:53:56.259Z,50.52
2018-10-06T00:56:25.999Z,50.51
2018-10-06T00:58:55.416Z,50.63
2018-10-06T01:01:25.203Z,50.55
2018-10-06T01:03:54.791Z,50.59
2018-10-06T01:06:24.336Z,50.47
2018-10-06T01:08:54.343Z,50.86
2018-10-06T01:14:05.233Z,50.98
2018-10-06T01:16:35.196Z,50.43
2018-10-06T01:19:04.796Z,50.67
2018-10-06T01:21:34.323Z,50.38
2018-10-06T01:24:04.354Z,50.49
2018-10-06T01:26:34.196Z,50.26
2018-10-06T01:29:03.783Z,50.37
2018-10-06T01:31:33.286Z,50.29
2018-10-06T01:34:03.312Z,50.26
2018-10-06T01:36:33.199Z,50.30
2018-10-06T01:39:03.318Z,50.04
2018-10-06T01:41:33.029Z,51.00
2018-10-06T01:44:02.785Z,50.80
2018-10-06T01:46:32.312Z,51.04
2018-10-06T01:49:02.178Z,50.84
2018-10-06T01:51:32.020Z,51.14
2018-10-06T01:54:01.396Z,51.59
2018-10-06T01:56:31.194Z,51.39
2018-10-06T01:59:00.985Z,51.72
2018-10-06T02:01:30.414Z,52.31
2018-10-06T02:04:00.245Z,51.74
2018-10-06T02:06:30.317Z,52.03
2018-10-06T02:09:00.190Z,52.25
2018-10-06T02:11:29.794Z,51.89
2018-10-06T02:13:59.321Z,52.12
2018-10-06T02:16:29.399Z,52.22
2018-10-06T02:18:59.169Z,52.63
2018-10-06T02:21:29.007Z,52.32
2018-10-06T02:23:58.414Z,52.11
2018-10-06T02:26:28.185Z,51.78
2018-10-06T02:28:57.654Z,52.14
2018-10-06T02:31:27.311Z,51.90
2018-10-06T02:33:57.204Z,51.79
2018-10-06T02:36:27.317Z,52.08
2018-10-06T02:38:57.197Z,52.22
2018-10-06T02:41:26.973Z,51.62
2018-10-06T02:43:56.405Z,51.49
2018-10-06T02:46:26.313Z,51.46
2018-10-06T02:48:56.164Z,51.85
2018-10-06T02:51:25.793Z,51.67
2018-10-06T02:53:55.324Z,51.47
2018-10-06T02:56:25.193Z,51.68
2018-10-06T02:58:54.985Z,51.24
2018-10-06T03:01:24.390Z,51.17
2018-10-06T03:03:54.190Z,51.11
2018-10-06T03:06:24.335Z,51.03
2018-10-06T03:08:54.205Z,51.10
2018-10-06T03:11:30.596Z,51.34
2018-10-06T03:14:01.860Z,51.19
2018-10-06T03:16:31.771Z,51.07
2018-10-06T03:19:03.310Z,51.05
2018-10-06T03:21:33.393Z,50.83
2018-10-06T03:24:04.900Z,51.17
2018-10-06T03:26:37.023Z,50.90
2018-10-06T03:29:07.362Z,51.21
2018-10-06T03:31:39.341Z,51.29
2018-10-06T03:35:33.337Z,51.07
2018-10-06T03:38:03.196Z,51.29
2018-10-06T03:40:32.789Z,51.37
2018-10-06T03:43:02.296Z,51.59
2018-10-06T03:45:33.184Z,51.74
2018-10-06T03:48:02.977Z,51.64
2018-10-06T03:50:32.353Z,51.81
2018-10-06T03:53:02.196Z,51.96
2018-10-06T03:55:31.956Z,51.22
2018-10-06T03:58:01.455Z,51.34
2018-10-06T04:00:31.183Z,51.76
2018-10-06T04:03:00.820Z,51.80
2018-10-06T04:05:30.329Z,51.78
2018-10-06T04:08:00.180Z,51.66
2018-10-06T04:10:30.189Z,51.86
2018-10-06T04:13:00.040Z,51.76
2018-10-06T04:15:29.949Z,51.88
2018-10-06T04:17:59.413Z,51.69
2018-10-06T04:20:29.197Z,51.43
2018-10-06T04:22:59.011Z,52.06
2018-10-06T04:25:28.414Z,51.95
2018-10-06T04:27:58.179Z,51.91
2018-10-06T04:30:27.774Z,52.30
2018-10-06T04:32:57.318Z,52.16
2018-10-06T04:35:27.166Z,52.14
2018-10-06T04:37:56.973Z,52.38
2018-10-06T04:40:26.462Z,52.50
2018-10-06T04:42:56.184Z,52.26
2018-10-06T04:45:25.680Z,52.21
2018-10-06T04:47:55.320Z,52.05
2018-10-06T04:50:25.209Z,52.36
2018-10-06T04:52:54.796Z,52.22
2018-10-06T04:55:24.312Z,52.27
2018-10-06T04:57:54.171Z,52.28
2018-10-06T05:00:24.009Z,52.13
2018-10-06T05:02:53.449Z,52.52
2018-10-06T05:05:23.203Z,52.41
2018-10-06T05:07:53.169Z,52.34
2018-10-06T05:10:22.778Z,52.10
2018-10-06T05:17:57.006Z,52.09
2018-10-06T05:20:26.792Z,51.88
2018-10-06T05:22:56.314Z,51.74
2018-10-06T05:25:26.195Z,51.66
2018-10-06T05:27:55.999Z,51.80
2018-10-06T05:30:25.387Z,51.63
2018-10-06T05:32:55.233Z,51.22
2018-10-06T05:35:24.966Z,51.62
2018-10-06T05:37:54.428Z,50.94
2018-10-06T05:40:24.313Z,50.96
2018-10-06T05:42:54.036Z,51.00
2018-10-06T05:45:23.805Z,51.05
2018-10-06T05:47:53.321Z,51.28
2018-10-06T05:50:23.176Z,51.29
2018-10-06T05:52:52.784Z,50.79
2018-10-06T05:55:22.301Z,50.74
2018-10-06T05:57:52.015Z,50.96
2018-10-06T06:00:21.421Z,50.67
2018-10-06T06:02:51.228Z,50.38
2018-10-06T06:05:21.178Z,50.37
2018-10-06T06:07:50.999Z,50.08
2018-10-06T06:10:20.487Z,50.40
2018-10-06T06:12:51.566Z,50.23
2018-10-06T06:15:21.261Z,49.64
2018-10-06T06:17:51.184Z,49.45
2018-10-06T06:20:20.802Z,49.85
2018-10-06T06:22:50.328Z,49.75
2018-10-06T06:25:20.235Z,49.60
2018-10-06T06:27:49.009Z,49.36
2018-10-06T06:30:18.496Z,49.51
2018-10-06T06:32:48.236Z,49.50
2018-10-06T06:35:18.028Z,49.83
2018-10-06T06:37:48.189Z,49.45
2018-10-06T06:40:17.800Z,49.76
2018-10-06T06:42:47.291Z,49.51
2018-10-06T06:45:15.730Z,49.29
2018-10-06T06:47:45.246Z,49.11
2018-10-06T06:50:15.203Z,48.87
2018-10-06T06:52:44.801Z,48.81
2018-10-06T06:55:14.325Z,48.49
2018-10-06T06:57:44.002Z,47.94
2018-10-06T07:00:13.443Z,47.94
2018-10-06T07:02:43.196Z,47.60
2018-10-06T07:05:12.809Z,47.10
2018-10-06T07:07:42.385Z,46.85
2018-10-06T07:10:12.186Z,46.46
2018-10-06T07:12:41.979Z,45.86
2018-10-06T07:15:11.720Z,45.76
2018-10-06T07:17:41.348Z,45.29
2018-10-06T07:20:11.188Z,44.89
2018-10-06T07:22:40.799Z,44.59
2018-10-06T07:25:10.354Z,44.35
2018-10-06T07:27:40.241Z,43.66
2018-10-06T07:30:09.948Z,43.54
2018-10-06T07:32:39.380Z,42.50
2018-10-06T07:35:09.190Z,42.18
2018-10-06T07:40:21.348Z,41.56
2018-10-06T07:42:51.194Z,40.17
2018-10-06T07:45:21.166Z,38.34
2018-10-06T07:47:50.803Z,38.20
2018-10-06T07:50:20.284Z,38.59
2018-10-06T07:52:48.726Z,39.51
2018-10-06T07:56:34.085Z,37.87
2018-10-06T07:59:03.842Z,37.27
2018-10-06T08:01:33.482Z,36.95
2018-10-06T08:04:03.196Z,36.34
2018-10-06T08:06:32.896Z,36.02
2018-10-06T08:09:02.447Z,34.61
2018-10-06T08:11:32.203Z,32.97
2018-10-06T08:14:02.214Z,31.44
2018-10-06T08:16:31.959Z,29.69
2018-10-06T08:19:01.431Z,27.48
2018-10-06T08:21:31.197Z,26.71
2018-10-06T08:24:01.020Z,26.83
2018-10-06T08:26:30.424Z,26.05
2018-10-06T08:29:00.209Z,26.02
2018-10-06T08:31:29.745Z,26.17
2018-10-06T08:36:18.040Z,24.47
2018-10-06T08:38:47.435Z,23.56
2018-10-06T08:41:17.339Z,24.11
2018-10-06T08:43:46.992Z,24.55
2018-10-06T08:46:17.361Z,23.94
2018-10-06T08:48:47.186Z,24.07
2018-10-06T08:51:16.800Z,23.09
2018-10-06T08:53:46.317Z,22.98
2018-10-06T08:56:16.410Z,23.45
2018-10-06T08:58:46.187Z,23.26
2018-10-06T09:01:15.821Z,23.28
2018-10-06T09:03:45.438Z,23.29
2018-10-06T09:06:15.202Z,23.31
2018-10-06T09:08:45.072Z,24.22
2018-10-06T09:11:14.435Z,24.28
2018-10-06T09:13:44.185Z,25.66
2018-10-06T09:16:13.800Z,25.84
2018-10-06T09:18:43.334Z,26.32
2018-10-06T09:21:13.204Z,26.94
2018-10-06T09:23:42.603Z,28.27
2018-10-06T09:26:12.397Z,28.79
2018-10-06T09:28:42.186Z,29.40
2018-10-06T09:31:11.810Z,29.51
2018-10-06T09:33:41.324Z,30.18
2018-10-06T09:36:11.185Z,31.17
2018-10-06T09:38:40.692Z,31.55
2018-10-06T09:41:10.280Z,31.97
2018-10-06T09:43:38.724Z,32.09
2018-10-06T09:46:08.320Z,32.33
2018-10-06T09:48:38.244Z,33.18
2018-10-06T09:51:07.442Z,33.17
2018-10-06T09:53:37.267Z,33.23
2018-10-06T09:56:07.212Z,33.58
2018-10-06T09:58:36.660Z,32.77
2018-10-06T10:01:11.244Z,32.40
2018-10-06T10:03:45.034Z,32.23
2018-10-06T10:06:14.489Z,32.53
2018-10-06T10:08:44.201Z,31.69
2018-10-06T10:11:13.797Z,32.13
2018-10-06T10:13:43.385Z,31.21
2018-10-06T10:16:13.211Z,30.62
2018-10-06T10:18:43.180Z,30.23
2018-10-06T10:21:12.760Z,29.23
2018-10-06T10:23:42.352Z,28.29
2018-10-06T10:26:12.269Z,27.67
2018-10-06T10:28:41.026Z,27.43
2018-10-06T10:31:10.804Z,27.55
2018-10-06T10:33:40.798Z,26.06
2018-10-06T10:36:10.322Z,26.90
2018-10-06T10:38:40.209Z,27.66
2018-10-06T10:41:09.803Z,26.49
2018-10-06T10:43:39.288Z,26.96
2018-10-06T10:46:08.509Z,26.83
2018-10-06T10:48:38.307Z,25.74
2018-10-06T10:51:08.081Z,25.12
2018-10-06T10:53:37.797Z,24.82
2018-10-06T10:56:07.337Z,24.12
2018-10-06T10:58:37.203Z,24.00
2018-10-06T11:01:06.984Z,24.83
2018-10-06T11:03:36.806Z,24.93
2018-10-06T11:06:06.317Z,25.59
2018-10-06T11:08:35.994Z,26.30
2018-10-06T11:11:05.552Z,25.99
2018-10-06T11:13:35.336Z,25.20
2018-10-06T11:16:05.186Z,25.26
2018-10-06T11:18:34.809Z,24.40
2018-10-06T11:21:04.323Z,24.95
2018-10-06T11:23:34.208Z,24.96
2018-10-06T11:26:03.801Z,25.47
2018-10-06T11:28:33.331Z,25.42
2018-10-06T11:31:04.300Z,26.04
2018-10-06T11:33:32.720Z,25.00
2018-10-06T11:36:02.330Z,24.73
2018-10-06T11:38:32.203Z,25.04
2018-10-06T11:41:02.220Z,25.09
2018-10-06T11:43:31.810Z,25.05
2018-10-06T11:46:01.341Z,25.49
2018-10-06T11:48:31.228Z,25.94
2018-10-06T11:51:00.486Z,25.70
2018-10-06T11:53:30.231Z,25.69
2018-10-06T11:55:59.809Z,25.56
2018-10-06T11:58:29.326Z,26.36
2018-10-06T12:00:59.210Z,26.62
2018-10-06T12:03:28.805Z,27.46
2018-10-06T12:05:58.325Z,27.42
2018-10-06T12:08:28.207Z,27.14
2018-10-06T12:10:57.702Z,27.47
2018-10-06T12:13:27.385Z,28.09
2018-10-06T12:15:57.388Z,28.01
2018-10-06T12:18:27.215Z,28.63
2018-10-06T12:20:57.209Z,28.77
2018-10-06T12:23:26.800Z,29.82
2018-10-06T12:25:56.339Z,29.03
2018-10-06T12:28:26.222Z,28.89
2018-10-06T12:30:56.062Z,28.79
2018-10-06T12:33:26.299Z,28.59
2018-10-06T12:35:56.013Z,28.81
2018-10-06T12:38:25.452Z,29.00
2018-10-06T12:40:55.329Z,29.06
2018-10-06T12:43:25.085Z,29.41
2018-10-06T12:45:54.990Z,29.08
2018-10-06T12:48:24.489Z,28.16
2018-10-06T12:50:54.223Z,26.09
2018-10-06T12:53:23.661Z,25.35
2018-10-06T12:55:53.337Z,25.92
2018-10-06T12:58:23.222Z,25.44
2018-10-06T13:00:51.720Z,22.96
2018-10-06T13:03:21.336Z,20.27
2018-10-06T13:05:51.221Z,18.83
2018-10-06T13:08:19.736Z,17.49
2018-10-06T13:10:49.332Z,16.38
2018-10-06T13:13:19.202Z,17.37
2018-10-06T13:15:47.505Z,17.30
2018-10-06T13:18:17.248Z,18.25
2018-10-06T13:20:45.449Z,19.10
2018-10-06T13:24:58.665Z,17.73
2018-10-06T13:27:28.316Z,16.62
2018-10-06T13:29:57.983Z,15.31
2018-10-06T13:32:27.429Z,16.59
2018-10-06T13:34:57.209Z,15.22
2018-10-06T13:37:25.812Z,15.98
2018-10-06T13:39:55.398Z,17.37
2018-10-06T13:42:25.210Z,18.45
2018-10-06T13:44:54.426Z,19.95
2018-10-06T13:47:24.192Z,20.93
2018-10-06T13:49:54.199Z,21.05
2018-10-06T13:52:23.953Z,21.15
2018-10-06T13:54:53.373Z,21.68
2018-10-06T13:57:23.203Z,21.46
2018-10-06T13:59:52.797Z,22.39
2018-10-06T14:02:22.338Z,22.71
2018-10-06T14:04:52.219Z,23.66
2018-10-06T14:07:21.541Z,24.25
2018-10-06T14:09:51.240Z,24.27
2018-10-06T14:12:19.592Z,24.72
2018-10-06T14:14:49.312Z,24.97
2018-10-06T14:17:19.245Z,25.81
2018-10-06T14:19:47.711Z,25.92
2018-10-06T14:22:17.322Z,26.93
2018-10-06T14:27:32.796Z,27.90
2018-10-06T14:30:02.323Z,28.32
2018-10-06T14:32:32.245Z,28.61
2018-10-06T14:35:02.247Z,29.43
2018-10-06T14:37:30.468Z,29.17
2018-10-06T14:40:00.192Z,29.22
2018-10-06T14:42:29.974Z,29.51
2018-10-06T14:44:59.418Z,29.72
2018-10-06T14:47:29.262Z,29.46
2018-10-06T14:49:59.272Z,29.37
2018-10-06T14:52:29.188Z,28.85
2018-10-06T14:54:58.997Z,29.12
2018-10-06T14:57:28.388Z,29.16
2018-10-06T14:59:58.215Z,29.58
2018-10-06T15:02:27.797Z,29.37
2018-10-06T15:04:57.322Z,29.96
2018-10-06T15:07:27.190Z,30.06
2018-10-06T15:09:56.789Z,30.95
2018-10-06T15:12:26.325Z,30.79
2018-10-06T15:14:56.195Z,31.03
2018-10-06T15:17:26.188Z,31.89
2018-10-06T15:19:55.788Z,32.04
2018-10-06T15:22:25.302Z,32.06
2018-10-06T15:24:55.196Z,32.29
2018-10-06T15:27:24.967Z,32.19
2018-10-06T15:29:54.433Z,32.45
2018-10-06T15:32:24.181Z,32.69
2018-10-06T15:34:53.789Z,32.47
2018-10-06T15:37:23.311Z,32.79
2018-10-06T15:39:53.184Z,32.66
2018-10-06T15:42:22.998Z,33.12
2018-10-06T15:44:52.444Z,33.39
2018-10-06T15:47:22.177Z,33.46
2018-10-06T15:49:51.795Z,33.69
2018-10-06T15:52:21.309Z,33.39
2018-10-06T15:54:51.192Z,33.78
2018-10-06T15:57:20.781Z,33.87
2018-10-06T15:59:50.280Z,33.88
2018-10-06T16:02:20.190Z,33.92
2018-10-06T16:04:49.682Z,34.36
2018-10-06T16:07:19.316Z,34.51
2018-10-06T16:10:40.214Z,34.82
2018-10-06T16:13:10.316Z,34.93
2018-10-06T16:15:40.156Z,35.63
2018-10-06T16:18:26.791Z,35.96
2018-10-06T16:20:56.345Z,36.78
2018-10-06T16:23:26.187Z,38.04
2018-10-06T16:25:56.191Z,38.55
2018-10-06T16:28:25.785Z,38.82
2018-10-06T16:30:55.304Z,37.88
2018-10-06T16:33:25.202Z,38.45
2018-10-06T16:35:54.973Z,38.44
2018-10-06T16:38:24.418Z,39.18
2018-10-06T16:40:54.222Z,39.43
2018-10-06T16:43:24.211Z,39.57
2018-10-06T16:45:53.804Z,39.88
2018-10-06T16:48:23.315Z,39.95
2018-10-06T16:50:53.191Z,39.97
2018-10-06T16:53:22.986Z,40.39
2018-10-06T16:55:52.420Z,40.61
2018-10-06T16:58:22.186Z,40.68
2018-10-06T17:00:51.788Z,40.82
2018-10-06T17:03:21.368Z,41.05
2018-10-06T17:05:51.097Z,40.82
2018-10-06T17:08:20.998Z,41.03
2018-10-06T17:10:50.420Z,41.53
2018-10-06T17:13:20.286Z,41.23
2018-10-06T17:15:49.967Z,41.26
2018-10-06T17:18:19.410Z,41.47
2018-10-06T17:20:49.279Z,41.52
2018-10-06T17:23:19.170Z,41.64
2018-10-06T17:25:49.001Z,42.10
2018-10-06T17:28:18.437Z,42.04
2018-10-06T17:30:48.213Z,41.67
2018-10-06T17:33:18.009Z,41.96
2018-10-06T17:35:47.468Z,42.33
2018-10-06T17:38:17.210Z,41.99
2018-10-06T17:40:47.198Z,42.28
2018-10-06T17:43:17.038Z,42.59
2018-10-06T17:45:46.783Z,42.32
2018-10-06T17:48:16.331Z,42.42
2018-10-06T17:50:46.307Z,42.64
2018-10-06T17:53:16.187Z,42.57
2018-10-06T17:55:45.797Z,42.29
2018-10-06T17:58:15.318Z,42.64
2018-10-06T18:00:45.171Z,42.66
2018-10-06T18:03:14.997Z,42.75
2018-10-06T18:05:44.393Z,42.78
2018-10-06T18:08:14.193Z,42.55
2018-10-06T18:10:44.186Z,42.86
2018-10-06T18:13:13.787Z,43.23
2018-10-06T18:15:43.282Z,43.01
2018-10-06T18:18:13.197Z,43.05
2018-10-06T18:20:43.079Z,42.91
2018-10-06T18:23:13.174Z,43.08
2018-10-06T18:25:42.789Z,43.16
2018-10-06T18:28:12.282Z,43.65
2018-10-06T18:30:42.249Z,43.75
2018-10-06T18:33:10.701Z,44.02
2018-10-06T18:35:40.312Z,43.69
2018-10-06T18:38:10.002Z,44.12
2018-10-06T18:40:39.374Z,44.36
2018-10-06T18:43:09.306Z,43.97
2018-10-06T18:45:39.066Z,43.86
2018-10-06T18:48:08.789Z,43.96
2018-10-06T18:50:38.335Z,44.09
2018-10-06T18:53:08.191Z,43.91
2018-10-06T18:55:38.232Z,44.15
2018-10-06T18:58:08.180Z,44.21
2018-10-06T19:00:38.209Z,44.26
2018-10-06T19:03:08.441Z,43.89
2018-10-06T19:05:38.337Z,44.23
2018-10-06T19:08:08.199Z,43.85
2018-10-06T19:10:38.195Z,44.37
2018-10-06T19:13:08.214Z,44.18
2018-10-06T19:15:38.061Z,43.93
2018-10-06T19:18:08.263Z,44.38
2018-10-06T19:20:36.754Z,44.60
2018-10-06T19:23:07.330Z,44.51
2018-10-06T19:25:37.255Z,44.94
2018-10-06T19:28:07.254Z,44.76
2018-10-06T19:30:35.703Z,44.84
2018-10-06T19:33:05.284Z,45.16
2018-10-06T19:35:35.152Z,45.35
2018-10-06T19:38:04.777Z,45.38
2018-10-06T19:40:34.448Z,44.79
2018-10-06T19:43:04.247Z,44.80
2018-10-06T19:45:34.216Z,44.72
2018-10-06T19:48:04.165Z,45.29
2018-10-06T19:50:33.789Z,45.24
2018-10-06T19:53:03.307Z,45.47
2018-10-06T19:55:33.169Z,45.84
2018-10-06T19:58:02.790Z,45.94
2018-10-06T20:00:32.436Z,45.86
2018-10-06T20:03:02.234Z,45.83
2018-10-06T20:05:32.180Z,46.28
2018-10-06T20:08:02.210Z,45.70
2018-10-06T20:10:31.976Z,45.59
2018-10-06T20:13:01.391Z,45.46
2018-10-06T20:15:31.316Z,45.70
2018-10-06T20:20:17.313Z,45.93
2018-10-06T20:22:47.244Z,45.95
2018-10-06T20:25:17.027Z,45.80
2018-10-06T20:27:46.409Z,45.63
2018-10-06T20:30:16.177Z,45.98
2018-10-06T20:32:45.983Z,45.63
2018-10-06T20:35:15.334Z,46.11
2018-10-06T20:37:45.176Z,46.08
2018-10-06T20:40:14.790Z,46.00
2018-10-06T20:42:44.328Z,46.52
2018-10-06T20:45:14.239Z,46.67
2018-10-06T20:47:44.009Z,46.36
2018-10-06T20:50:13.449Z,46.41
2018-10-06T20:52:43.299Z,46.40
2018-10-06T20:55:13.193Z,46.14
2018-10-06T20:57:43.351Z,46.46
2018-10-06T21:00:13.278Z,46.57
2018-10-06T21:02:42.009Z,47.26
2018-10-06T21:05:12.282Z,46.68
2018-10-06T21:07:41.021Z,47.41
2018-10-06T21:10:10.794Z,47.79
2018-10-06T21:12:40.349Z,47.68
2018-10-06T21:15:10.193Z,47.37
2018-10-06T21:17:39.685Z,48.01
2018-10-06T21:20:09.330Z,47.54
2018-10-06T21:22:39.213Z,47.74
2018-10-06T21:25:09.693Z,47.53
2018-10-06T21:27:39.312Z,47.61
2018-10-06T21:30:09.016Z,47.39
2018-10-06T21:32:39.188Z,47.75
2018-10-06T21:35:09.024Z,47.33
2018-10-06T21:37:39.554Z,47.28
2018-10-06T21:40:09.333Z,48.09
2018-10-06T21:42:39.288Z,47.95
2018-10-06T21:45:09.286Z,48.14
2018-10-06T21:47:38.042Z,48.72
2018-10-06T21:50:09.037Z,48.58
2018-10-06T21:52:38.825Z,48.52
2018-10-06T21:55:08.775Z,48.34
2018-10-06T21:57:38.410Z,48.39
2018-10-06T22:00:08.391Z,48.88
2018-10-06T22:02:38.436Z,48.53
2018-10-06T22:05:08.350Z,48.46
2018-10-06T22:07:38.183Z,48.18
2018-10-06T22:10:08.289Z,48.28
2018-10-06T22:12:38.181Z,48.45
2018-10-06T22:15:08.355Z,48.28
2018-10-06T22:17:38.296Z,48.16
2018-10-06T22:20:06.949Z,48.36
2018-10-06T22:22:36.416Z,48.49
2018-10-06T22:25:06.234Z,48.29
2018-10-06T22:27:36.001Z,48.77
2018-10-06T22:30:07.280Z,49.25
2018-10-06T22:32:35.796Z,49.09
2018-10-06T22:35:05.385Z,48.85
2018-10-06T22:37:35.173Z,49.03
2018-10-06T22:40:04.791Z,49.53
2018-10-06T22:42:34.309Z,49.99
2018-10-06T22:45:04.506Z,50.30
2018-10-06T22:47:34.236Z,50.34
2018-10-06T22:50:03.973Z,50.70
2018-10-06T22:52:33.351Z,50.66
2018-10-06T22:55:03.323Z,50.74
2018-10-06T22:57:33.179Z,51.22
2018-10-06T23:00:03.035Z,51.37
2018-10-06T23:02:32.786Z,51.26
2018-10-06T23:05:02.308Z,51.69
2018-10-06T23:07:32.347Z,51.38
2018-10-06T23:10:02.400Z,51.45
2018-10-06T23:12:33.096Z,51.69
2018-10-06T23:15:02.793Z,52.08
2018-10-06T23:17:32.498Z,51.66
2018-10-06T23:20:02.190Z,51.18
2018-10-06T23:22:31.789Z,51.10
2018-10-06T23:25:01.402Z,50.89
2018-10-06T23:27:31.208Z,51.04
2018-10-06T23:30:00.798Z,51.03
2018-10-06T23:32:30.301Z,51.68
2018-10-06T23:35:00.177Z,51.34
2018-10-06T23:37:29.973Z,51.03
2018-10-06T23:39:59.419Z,51.27
2018-10-06T23:42:29.199Z,51.68
2018-10-06T23:44:58.783Z,51.96
2018-10-06T23:47:28.310Z,51.57
2018-10-06T23:49:58.194Z,51.16
2018-10-06T23:52:27.970Z,51.56
2018-10-06T23:54:57.323Z,52.01
2018-10-06T23:57:27.195Z,51.47
2018-10-06T23:59:56.642Z,51.07
